createdAt,value
2018-09-03T00:00:47.689Z,15.08
2018-09-03T00:01:47.682Z,15.02
2018-09-03T00:02:47.687Z,15.09
2018-09-03T00:03:47.717Z,15.08
2018-09-03T00:04:47.686Z,15.19
2018-09-03T00:05:47.687Z,15.15
2018-09-03T00:06:47.691Z,15.09
2018-09-03T00:07:47.684Z,15.09
2018-09-03T00:08:47.715Z,15.08
2018-09-03T00:09:47.687Z,15.20
2018-09-03T00:10:47.687Z,15.19
2018-09-03T00:11:47.701Z,15.31
2018-09-03T00:12:48.339Z,15.36
2018-09-03T00:13:47.719Z,15.33
2018-09-03T00:14:47.688Z,15.24
2018-09-03T00:15:47.684Z,15.33
2018-09-03T00:16:47.688Z,15.33
2018-09-03T00:17:47.687Z,15.38
2018-09-03T00:18:47.718Z,15.28
2018-09-03T00:19:47.684Z,15.30
2018-09-03T00:20:47.690Z,15.31
2018-09-03T00:21:47.690Z,15.27
2018-09-03T00:22:47.720Z,15.28
2018-09-03T00:23:47.690Z,15.28
2018-09-03T00:24:47.689Z,15.26
2018-09-03T00:25:47.694Z,15.23
2018-09-03T00:26:47.688Z,15.24
2018-09-03T00:27:47.717Z,15.19
2018-09-03T00:28:47.689Z,15.12
2018-09-03T00:29:47.691Z,15.09
2018-09-03T00:30:47.689Z,15.17
2018-09-03T00:31:47.685Z,15.11
2018-09-03T00:32:47.714Z,15.24
2018-09-03T00:33:47.690Z,15.21
2018-09-03T00:34:47.690Z,15.19
2018-09-03T00:35:47.687Z,15.20
2018-09-03T00:36:47.715Z,15.30
2018-09-03T00:37:47.691Z,15.31
2018-09-03T00:38:47.690Z,15.30
2018-09-03T00:39:47.691Z,15.36
2018-09-03T00:40:47.688Z,15.30
2018-09-03T00:41:47.715Z,15.31
2018-09-03T00:42:47.692Z,15.27
2018-09-03T00:43:47.687Z,15.28
2018-09-03T00:44:47.692Z,15.21
2018-09-03T00:45:47.690Z,15.17
2018-09-03T00:46:47.719Z,15.05
2018-09-03T00:47:47.690Z,15.05
2018-09-03T00:48:47.692Z,15.08
2018-09-03T00:49:47.692Z,15.03
2018-09-03T00:50:47.692Z,15.12
2018-09-03T00:51:47.722Z,15.12
2018-09-03T00:52:47.693Z,15.20
2018-09-03T00:53:47.694Z,15.15
2018-09-03T00:54:47.691Z,15.03
2018-09-03T00:55:47.689Z,15.17
2018-09-03T00:56:47.720Z,15.15
2018-09-03T00:57:47.689Z,15.19
2018-09-03T00:58:47.690Z,15.06
2018-09-03T00:59:47.690Z,15.20
2018-09-03T01:00:47.693Z,15.23
2018-09-03T01:01:47.718Z,15.19
2018-09-03T01:02:47.697Z,15.26
2018-09-03T01:03:47.693Z,15.17
2018-09-03T01:04:47.695Z,15.20
2018-09-03T01:05:47.691Z,15.19
2018-09-03T01:06:47.719Z,15.17
2018-09-03T01:07:47.691Z,15.09
2018-09-03T01:08:47.699Z,15.06
2018-09-03T01:09:47.688Z,15.06
2018-09-03T01:10:47.691Z,15.06
2018-09-03T01:11:47.718Z,15.09
2018-09-03T01:12:47.696Z,15.03
2018-09-03T01:13:47.691Z,15.12
2018-09-03T01:14:47.689Z,15.19
2018-09-03T01:15:47.692Z,15.24
2018-09-03T01:16:47.720Z,15.21
2018-09-03T01:17:47.692Z,15.15
2018-09-03T01:18:47.693Z,15.13
2018-09-03T01:19:47.693Z,15.30
2018-09-03T01:20:47.720Z,15.35
2018-09-03T01:21:47.692Z,15.33
2018-09-03T01:22:47.692Z,15.30
2018-09-03T01:23:47.696Z,15.23
2018-09-03T01:24:47.701Z,15.19
2018-09-03T01:25:47.721Z,15.19
2018-09-03T01:26:47.694Z,15.15
2018-09-03T01:27:47.693Z,15.13
2018-09-03T01:28:47.696Z,15.19
2018-09-03T01:29:47.697Z,15.23
2018-09-03T01:30:47.722Z,15.24
2018-09-03T01:31:47.695Z,15.24
2018-09-03T01:32:47.696Z,15.33
2018-09-03T01:33:47.722Z,15.27
2018-09-03T01:34:47.695Z,15.31
2018-09-03T01:35:47.697Z,15.39
2018-09-03T01:36:47.710Z,15.31
2018-09-03T01:37:47.694Z,15.28
2018-09-03T01:38:47.721Z,15.28
2018-09-03T01:39:47.692Z,15.23
2018-09-03T01:40:47.699Z,15.26
2018-09-03T01:41:47.723Z,15.27
2018-09-03T01:42:47.695Z,15.35
2018-09-03T01:43:47.698Z,15.38
2018-09-03T01:44:47.697Z,15.33
2018-09-03T01:45:47.723Z,15.35
2018-09-03T01:46:47.699Z,15.33
2018-09-03T01:47:47.697Z,15.33
2018-09-03T01:48:48.728Z,15.42
2018-09-03T01:49:47.695Z,15.43
2018-09-03T01:50:47.696Z,15.43
2018-09-03T01:51:47.724Z,15.35
2018-09-03T01:52:47.813Z,15.35
2018-09-03T01:53:47.697Z,15.35
2018-09-03T01:54:47.696Z,15.36
2018-09-03T01:55:47.728Z,15.42
2018-09-03T01:56:47.701Z,15.46
2018-09-03T01:57:47.692Z,15.42
2018-09-03T01:58:47.700Z,15.43
2018-09-03T01:59:47.701Z,15.38
2018-09-03T02:00:47.725Z,15.36
2018-09-03T02:01:47.701Z,15.33
2018-09-03T02:02:47.706Z,15.36
2018-09-03T02:03:47.723Z,15.38
2018-09-03T02:04:47.702Z,15.39
2018-09-03T02:05:47.735Z,15.46
2018-09-03T02:06:47.704Z,15.35
2018-09-03T02:07:47.700Z,15.36
2018-09-03T02:08:47.702Z,15.30
2018-09-03T02:09:47.695Z,15.33
2018-09-03T02:10:47.730Z,15.39
2018-09-03T02:11:47.699Z,15.36
2018-09-03T02:12:47.703Z,15.48
2018-09-03T02:13:47.727Z,15.48
2018-09-03T02:14:47.707Z,15.36
2018-09-03T02:15:47.701Z,15.41
2018-09-03T02:16:47.723Z,15.42
2018-09-03T02:17:47.704Z,15.46
2018-09-03T02:18:47.731Z,15.45
2018-09-03T02:19:47.700Z,15.48
2018-09-03T02:20:47.703Z,15.49
2018-09-03T02:21:47.738Z,15.43
2018-09-03T02:22:47.704Z,15.48
2018-09-03T02:23:47.700Z,15.45
2018-09-03T02:24:47.704Z,15.36
2018-09-03T02:25:47.736Z,15.41
2018-09-03T02:26:47.704Z,15.46
2018-09-03T02:27:47.701Z,15.46
2018-09-03T02:28:47.705Z,15.41
2018-09-03T02:29:47.705Z,15.39
2018-09-03T02:30:47.731Z,15.42
2018-09-03T02:31:47.701Z,15.52
2018-09-03T02:32:47.705Z,15.43
2018-09-03T02:33:47.705Z,15.54
2018-09-03T02:34:47.707Z,15.42
2018-09-03T02:35:47.730Z,15.49
2018-09-03T02:36:47.734Z,15.43
2018-09-03T02:37:47.706Z,15.35
2018-09-03T02:38:47.703Z,15.33
2018-09-03T02:39:47.702Z,15.36
2018-09-03T02:40:47.707Z,15.31
2018-09-03T02:41:47.732Z,15.17
2018-09-03T02:42:47.846Z,15.19
2018-09-03T02:43:47.703Z,15.17
2018-09-03T02:44:47.707Z,15.20
2018-09-03T02:45:47.739Z,15.28
2018-09-03T02:46:47.712Z,15.38
2018-09-03T02:47:47.708Z,15.33
2018-09-03T02:48:47.707Z,15.31
2018-09-03T02:49:47.708Z,15.31
2018-09-03T02:50:47.736Z,15.38
2018-09-03T02:51:47.704Z,15.36
2018-09-03T02:52:47.707Z,15.46
2018-09-03T02:53:47.708Z,15.43
2018-09-03T02:54:47.708Z,15.41
2018-09-03T02:55:47.736Z,15.43
2018-09-03T02:56:47.704Z,15.46
2018-09-03T02:57:47.723Z,15.43
2018-09-03T02:58:47.709Z,15.48
2018-09-03T02:59:47.705Z,15.45
2018-09-03T03:00:47.737Z,15.46
2018-09-03T03:01:47.709Z,15.38
2018-09-03T03:02:47.711Z,15.36
2018-09-03T03:03:47.709Z,15.33
2018-09-03T03:04:47.710Z,15.42
2018-09-03T03:05:47.741Z,15.36
2018-09-03T03:06:47.710Z,15.41
2018-09-03T03:07:47.707Z,15.33
2018-09-03T03:08:47.713Z,15.33
2018-09-03T03:09:47.709Z,15.31
2018-09-03T03:10:47.742Z,15.33
2018-09-03T03:11:47.763Z,15.33
2018-09-03T03:12:47.870Z,15.30
2018-09-03T03:13:47.735Z,15.38
2018-09-03T03:14:47.711Z,15.33
2018-09-03T03:15:47.736Z,15.30
2018-09-03T03:16:47.711Z,15.31
2018-09-03T03:17:47.732Z,15.31
2018-09-03T03:18:47.712Z,15.26
2018-09-03T03:19:47.711Z,15.30
2018-09-03T03:20:47.741Z,15.33
2018-09-03T03:21:47.711Z,15.24
2018-09-03T03:22:47.712Z,15.23
2018-09-03T03:23:47.707Z,15.28
2018-09-03T03:24:47.710Z,15.28
2018-09-03T03:25:47.737Z,15.26
2018-09-03T03:26:47.708Z,15.26
2018-09-03T03:27:47.712Z,15.26
2018-09-03T03:28:47.712Z,15.20
2018-09-03T03:29:47.737Z,15.20
2018-09-03T03:30:47.708Z,15.21
2018-09-03T03:31:47.710Z,15.21
2018-09-03T03:32:47.800Z,15.24
2018-09-03T03:33:47.708Z,15.27
2018-09-03T03:34:47.708Z,15.23
2018-09-03T03:35:47.747Z,15.23
2018-09-03T03:36:47.716Z,15.23
2018-09-03T03:37:47.710Z,15.30
2018-09-03T03:38:47.716Z,15.30
2018-09-03T03:39:47.709Z,15.31
2018-09-03T03:40:47.737Z,15.30
2018-09-03T03:41:51.625Z,15.27
2018-09-03T03:42:47.709Z,15.27
2018-09-03T03:43:47.708Z,15.35
2018-09-03T03:44:47.717Z,15.28
2018-09-03T03:45:47.738Z,15.31
2018-09-03T03:46:47.710Z,15.31
2018-09-03T03:47:48.389Z,15.36
2018-09-03T03:48:47.784Z,15.35
2018-09-03T03:49:47.708Z,15.33
2018-09-03T03:50:47.739Z,15.35
2018-09-03T03:51:47.708Z,15.31
2018-09-03T03:52:47.843Z,15.28
2018-09-03T03:53:47.707Z,15.30
2018-09-03T03:54:47.704Z,15.31
2018-09-03T03:55:47.736Z,15.35
2018-09-03T03:56:47.709Z,15.30
2018-09-03T03:57:47.708Z,15.31
2018-09-03T03:58:47.706Z,15.19
2018-09-03T03:59:47.712Z,15.23
2018-09-03T04:00:47.741Z,15.20
2018-09-03T04:01:47.730Z,15.31
2018-09-03T04:02:47.713Z,15.27
2018-09-03T04:03:47.709Z,15.30
2018-09-03T04:04:47.708Z,15.35
2018-09-03T04:05:47.738Z,15.27
2018-09-03T04:06:47.714Z,15.26
2018-09-03T04:07:47.709Z,15.31
2018-09-03T04:08:47.726Z,15.41
2018-09-03T04:09:47.710Z,15.33
2018-09-03T04:10:47.734Z,15.30
2018-09-03T04:11:47.738Z,15.36
2018-09-03T04:12:47.882Z,15.30
2018-09-03T04:13:47.714Z,15.26
2018-09-03T04:14:47.707Z,15.35
2018-09-03T04:15:47.712Z,15.28
2018-09-03T04:16:47.740Z,15.33
2018-09-03T04:17:47.719Z,15.27
2018-09-03T04:18:47.712Z,15.30
2018-09-03T04:19:47.707Z,15.35
2018-09-03T04:20:47.707Z,15.35
2018-09-03T04:21:47.735Z,15.31
2018-09-03T04:22:47.715Z,15.35
2018-09-03T04:23:47.773Z,15.39
2018-09-03T04:24:47.707Z,15.35
2018-09-03T04:25:47.704Z,15.33
2018-09-03T04:26:47.740Z,15.38
2018-09-03T04:27:47.709Z,15.28
2018-09-03T04:28:47.756Z,15.38
2018-09-03T04:29:47.708Z,15.38
2018-09-03T04:30:47.708Z,15.31
2018-09-03T04:31:47.741Z,15.30
2018-09-03T04:32:47.926Z,15.43
2018-09-03T04:33:47.705Z,15.28
2018-09-03T04:34:47.709Z,15.31
2018-09-03T04:35:47.714Z,15.28
2018-09-03T04:36:47.735Z,15.21
2018-09-03T04:37:47.709Z,15.26
2018-09-03T04:38:47.795Z,15.21
2018-09-03T04:39:47.706Z,15.28
2018-09-03T04:40:47.711Z,15.28
2018-09-03T04:41:47.742Z,15.24
2018-09-03T04:42:47.710Z,15.35
2018-09-03T04:43:47.709Z,15.27
2018-09-03T04:44:47.706Z,15.20
2018-09-03T04:45:47.711Z,15.23
2018-09-03T04:46:47.735Z,15.28
2018-09-03T04:47:47.707Z,15.27
2018-09-03T04:48:47.705Z,15.41
2018-09-03T04:49:47.739Z,15.39
2018-09-03T04:50:47.715Z,15.30
2018-09-03T04:51:47.736Z,15.30
2018-09-03T04:52:47.856Z,15.36
2018-09-03T04:53:47.712Z,15.31
2018-09-03T04:54:47.726Z,15.31
2018-09-03T04:55:47.708Z,15.39
2018-09-03T04:56:47.736Z,15.36
2018-09-03T04:57:47.706Z,15.36
2018-09-03T04:58:47.711Z,15.33
2018-09-03T04:59:47.709Z,15.35
2018-09-03T05:00:47.706Z,15.28
2018-09-03T05:01:47.743Z,15.31
2018-09-03T05:02:47.711Z,15.33
2018-09-03T05:03:48.383Z,15.30
2018-09-03T05:04:47.705Z,15.43
2018-09-03T05:05:47.777Z,15.36
2018-09-03T05:06:47.738Z,15.31
2018-09-03T05:07:47.710Z,15.28
2018-09-03T05:08:47.706Z,15.24
2018-09-03T05:09:49.767Z,15.36
2018-09-03T05:10:51.266Z,15.45
2018-09-03T05:11:48.646Z,15.46
2018-09-03T05:12:54.620Z,15.52
2018-09-03T05:13:47.792Z,15.49
2018-09-03T05:14:47.713Z,15.35
2018-09-03T05:15:47.743Z,15.31
2018-09-03T05:16:53.750Z,15.21
2018-09-03T05:17:50.392Z,15.28
2018-09-03T05:18:50.288Z,15.31
2018-09-03T05:19:48.098Z,15.48
2018-09-03T05:20:50.363Z,15.46
2018-09-03T05:21:49.246Z,15.49
2018-09-03T05:22:48.110Z,15.46
2018-09-03T05:23:47.712Z,15.43
2018-09-03T05:24:47.788Z,15.51
2018-09-03T05:25:47.736Z,15.59
2018-09-03T05:26:47.740Z,15.54
2018-09-03T05:27:47.717Z,15.52
2018-09-03T05:28:47.710Z,15.56
2018-09-03T05:29:47.721Z,15.60
2018-09-03T05:30:48.383Z,15.52
2018-09-03T05:31:47.748Z,15.45
2018-09-03T05:32:47.715Z,15.46
2018-09-03T05:33:47.715Z,15.42
2018-09-03T05:34:47.719Z,15.51
2018-09-03T05:35:47.811Z,15.46
2018-09-03T05:36:47.711Z,15.52
2018-09-03T05:37:47.720Z,15.60
2018-09-03T05:38:47.719Z,15.43
2018-09-03T05:39:47.867Z,15.46
2018-09-03T05:40:47.749Z,15.54
2018-09-03T05:41:47.716Z,15.48
2018-09-03T05:42:47.718Z,15.52
2018-09-03T05:43:47.774Z,15.64
2018-09-03T05:44:47.716Z,15.60
2018-09-03T05:45:47.740Z,15.56
2018-09-03T05:46:47.718Z,15.43
2018-09-03T05:47:47.724Z,15.48
2018-09-03T05:48:47.724Z,15.43
2018-09-03T05:49:47.724Z,15.52
2018-09-03T05:50:47.836Z,15.52
2018-09-03T05:51:47.921Z,15.52
2018-09-03T05:52:47.723Z,15.46
2018-09-03T05:53:47.719Z,15.59
2018-09-03T05:54:47.723Z,15.60
2018-09-03T05:55:47.721Z,15.57
2018-09-03T05:56:47.749Z,15.39
2018-09-03T05:57:47.721Z,15.43
2018-09-03T05:58:47.718Z,15.48
2018-09-03T05:59:47.727Z,15.43
2018-09-03T06:00:47.727Z,15.52
2018-09-03T06:01:47.754Z,15.46
2018-09-03T06:02:47.721Z,15.49
2018-09-03T06:03:48.021Z,15.54
2018-09-03T06:04:47.770Z,15.66
2018-09-03T06:05:50.895Z,15.54
2018-09-03T06:06:47.722Z,15.61
2018-09-03T06:07:47.722Z,15.59
2018-09-03T06:08:47.723Z,15.63
2018-09-03T06:09:47.721Z,15.63
2018-09-03T06:10:47.846Z,15.60
2018-09-03T06:11:47.727Z,15.61
2018-09-03T06:12:47.734Z,15.54
2018-09-03T06:13:47.728Z,15.59
2018-09-03T06:14:47.729Z,15.41
2018-09-03T06:15:47.756Z,15.36
2018-09-03T06:16:47.728Z,15.33
2018-09-03T06:17:47.764Z,15.27
2018-09-03T06:18:47.725Z,15.30
2018-09-03T06:19:47.728Z,15.24
2018-09-03T06:20:47.756Z,15.28
2018-09-03T06:21:48.265Z,15.33
2018-09-03T06:22:47.726Z,15.31
2018-09-03T06:23:47.729Z,15.33
2018-09-03T06:24:47.729Z,15.26
2018-09-03T06:25:47.756Z,15.20
2018-09-03T06:26:47.837Z,15.28
2018-09-03T06:27:47.730Z,15.24
2018-09-03T06:28:47.729Z,15.24
2018-09-03T06:29:47.729Z,15.33
2018-09-03T06:30:47.726Z,15.33
2018-09-03T06:31:47.761Z,15.28
2018-09-03T06:32:47.791Z,15.35
2018-09-03T06:33:47.730Z,15.33
2018-09-03T06:34:47.731Z,15.36
2018-09-03T06:35:47.741Z,15.38
2018-09-03T06:36:47.759Z,15.36
2018-09-03T06:37:47.731Z,15.36
2018-09-03T06:38:47.737Z,15.38
2018-09-03T06:39:47.736Z,15.43
2018-09-03T06:40:47.730Z,15.48
2018-09-03T06:41:47.759Z,15.41
2018-09-03T06:42:47.735Z,15.51
2018-09-03T06:43:47.732Z,15.70
2018-09-03T06:44:47.731Z,15.82
2018-09-03T06:45:47.745Z,15.89
2018-09-03T06:46:47.756Z,15.96
2018-09-03T06:47:47.732Z,16.06
2018-09-03T06:48:47.732Z,16.04
2018-09-03T06:49:47.732Z,16.06
2018-09-03T06:50:47.736Z,15.94
2018-09-03T06:51:47.757Z,15.89
2018-09-03T06:52:47.778Z,15.93
2018-09-03T06:53:47.733Z,15.68
2018-09-03T06:54:47.733Z,15.79
2018-09-03T06:55:47.733Z,15.68
2018-09-03T06:56:47.765Z,15.72
2018-09-03T06:57:47.733Z,15.70
2018-09-03T06:58:47.729Z,15.75
2018-09-03T06:59:48.274Z,15.84
2018-09-03T07:00:47.766Z,15.92
2018-09-03T07:01:47.746Z,15.86
2018-09-03T07:02:47.759Z,15.96
2018-09-03T07:03:47.743Z,15.96
2018-09-03T07:04:48.095Z,15.89
2018-09-03T07:05:47.737Z,16.01
2018-09-03T07:06:47.811Z,15.94
2018-09-03T07:07:47.763Z,15.99
2018-09-03T07:08:47.734Z,16.06
2018-09-03T07:09:47.738Z,16.06
2018-09-03T07:10:47.766Z,16.06
2018-09-03T07:11:47.739Z,16.16
2018-09-03T07:12:47.762Z,16.14
2018-09-03T07:13:47.740Z,16.16
2018-09-03T07:14:47.738Z,16.15
2018-09-03T07:15:48.320Z,16.25
2018-09-03T07:16:47.769Z,16.25
2018-09-03T07:17:47.740Z,16.23
2018-09-03T07:18:47.755Z,16.04
2018-09-03T07:19:47.746Z,15.88
2018-09-03T07:20:47.772Z,15.88
2018-09-03T07:21:47.745Z,15.88
2018-09-03T07:22:47.772Z,15.75
2018-09-03T07:23:47.740Z,15.82
2018-09-03T07:24:47.749Z,16.07
2018-09-03T07:25:47.753Z,16.25
2018-09-03T07:26:47.782Z,16.20
2018-09-03T07:27:48.346Z,16.27
2018-09-03T07:28:48.411Z,16.25
2018-09-03T07:29:48.345Z,16.37
2018-09-03T07:30:48.408Z,16.45
2018-09-03T07:31:49.346Z,16.53
2018-09-03T07:32:47.749Z,16.59
2018-09-03T07:33:47.751Z,16.60
2018-09-03T07:34:47.754Z,16.70
2018-09-03T07:35:47.782Z,16.86
2018-09-03T07:36:47.755Z,16.92
2018-09-03T07:37:47.787Z,16.81
2018-09-03T07:38:47.757Z,16.89
2018-09-03T07:39:47.754Z,16.80
2018-09-03T07:40:47.795Z,16.85
2018-09-03T07:41:47.757Z,16.83
2018-09-03T07:42:47.763Z,16.92
2018-09-03T07:43:47.759Z,17.06
2018-09-03T07:44:47.763Z,17.07
2018-09-03T07:45:47.792Z,17.11
2018-09-03T07:46:47.768Z,17.28
2018-09-03T07:47:47.783Z,17.22
2018-09-03T07:48:47.773Z,17.25
2018-09-03T07:49:47.768Z,17.28
2018-09-03T07:50:47.796Z,17.20
2018-09-03T07:51:47.771Z,17.28
2018-09-03T07:52:47.773Z,17.20
2018-09-03T07:53:47.780Z,17.14
2018-09-03T07:54:47.777Z,17.14
2018-09-03T07:55:47.806Z,17.17
2018-09-03T07:56:47.780Z,17.25
2018-09-03T07:57:47.807Z,17.22
2018-09-03T07:58:47.785Z,17.35
2018-09-03T07:59:47.781Z,17.38
2018-09-03T08:00:47.790Z,17.41
2018-09-03T08:01:47.817Z,17.50
2018-09-03T08:02:47.790Z,17.46
2018-09-03T08:03:47.793Z,17.50
2018-09-03T08:04:47.792Z,17.33
2018-09-03T08:05:47.795Z,17.55
2018-09-03T08:06:47.823Z,17.62
2018-09-03T08:07:47.795Z,17.51
2018-09-03T08:08:47.803Z,17.20
2018-09-03T08:09:47.799Z,16.99
2018-09-03T08:10:47.803Z,16.81
2018-09-03T08:11:47.825Z,16.59
2018-09-03T08:12:47.865Z,16.50
2018-09-03T08:13:47.814Z,16.52
2018-09-03T08:14:47.808Z,16.35
2018-09-03T08:15:47.808Z,16.49
2018-09-03T08:16:47.840Z,16.62
2018-09-03T08:17:47.816Z,16.83
2018-09-03T08:18:47.817Z,16.93
2018-09-03T08:19:47.810Z,16.80
2018-09-03T08:20:47.816Z,16.70
2018-09-03T08:21:47.849Z,16.58
2018-09-03T08:22:47.825Z,16.45
2018-09-03T08:23:47.822Z,16.44
2018-09-03T08:24:47.829Z,16.33
2018-09-03T08:25:47.827Z,16.42
2018-09-03T08:26:47.853Z,16.48
2018-09-03T08:27:47.827Z,16.49
2018-09-03T08:28:47.833Z,16.33
2018-09-03T08:29:47.830Z,16.49
2018-09-03T08:30:47.835Z,16.50
2018-09-03T08:31:47.858Z,16.44
2018-09-03T08:32:47.833Z,16.55
2018-09-03T08:33:47.842Z,16.55
2018-09-03T08:34:47.835Z,16.52
2018-09-03T08:35:47.834Z,16.35
2018-09-03T08:36:47.879Z,16.48
2018-09-03T08:37:47.847Z,16.50
2018-09-03T08:38:47.840Z,16.41
2018-09-03T08:39:47.883Z,16.37
2018-09-03T08:40:47.844Z,16.44
2018-09-03T08:41:47.872Z,16.45
2018-09-03T08:42:47.847Z,16.48
2018-09-03T08:43:47.845Z,16.68
2018-09-03T08:44:47.894Z,16.53
2018-09-03T08:45:47.867Z,16.58
2018-09-03T08:46:47.895Z,16.62
2018-09-03T08:47:47.857Z,16.60
2018-09-03T08:48:48.289Z,16.60
2018-09-03T08:49:47.851Z,16.58
2018-09-03T08:50:47.850Z,16.65
2018-09-03T08:51:47.853Z,16.68
2018-09-03T08:52:49.390Z,16.71
2018-09-03T08:53:47.854Z,16.59
2018-09-03T08:54:47.850Z,16.50
2018-09-03T08:55:47.866Z,16.55
2018-09-03T08:56:47.900Z,16.67
2018-09-03T08:57:47.858Z,16.63
2018-09-03T08:58:48.097Z,16.56
2018-09-03T08:59:48.783Z,16.53
2018-09-03T09:00:47.876Z,16.48
2018-09-03T09:01:47.894Z,16.59
2018-09-03T09:02:47.862Z,16.58
2018-09-03T09:03:47.862Z,16.52
2018-09-03T09:04:47.869Z,16.60
2018-09-03T09:05:47.873Z,16.55
2018-09-03T09:06:48.098Z,16.63
2018-09-03T09:07:47.865Z,16.56
2018-09-03T09:08:47.865Z,16.62
2018-09-03T09:09:47.873Z,16.60
2018-09-03T09:10:47.861Z,16.65
2018-09-03T09:11:51.337Z,16.68
2018-09-03T09:12:48.128Z,16.50
2018-09-03T09:13:50.781Z,16.48
2018-09-03T09:14:48.020Z,16.45
2018-09-03T09:15:55.369Z,16.53
2018-09-03T09:16:47.975Z,16.52
2018-09-03T09:17:49.430Z,16.50
2018-09-03T09:18:48.842Z,16.45
2018-09-03T09:19:48.120Z,16.49
2018-09-03T09:20:48.189Z,16.50
2018-09-03T09:21:48.068Z,16.50
2018-09-03T09:22:49.841Z,16.52
2018-09-03T09:23:51.940Z,16.49
2018-09-03T09:24:48.008Z,16.50
2018-09-03T09:25:48.083Z,16.53
2018-09-03T09:26:47.920Z,16.65
2018-09-03T09:27:48.064Z,16.60
2018-09-03T09:28:47.895Z,16.70
2018-09-03T09:29:48.498Z,16.60
2018-09-03T09:30:48.045Z,16.74
2018-09-03T09:31:47.920Z,16.74
2018-09-03T09:32:48.022Z,16.60
2018-09-03T09:33:48.023Z,16.71
2018-09-03T09:34:47.991Z,16.86
2018-09-03T09:35:47.984Z,16.89
2018-09-03T09:36:47.942Z,16.81
2018-09-03T09:37:47.897Z,16.86
2018-09-03T09:38:47.903Z,17.06
2018-09-03T09:39:47.896Z,16.80
2018-09-03T09:40:47.899Z,16.85
2018-09-03T09:41:47.931Z,16.93
2018-09-03T09:42:47.914Z,16.80
2018-09-03T09:43:47.903Z,16.77
2018-09-03T09:44:47.930Z,16.74
2018-09-03T09:45:47.908Z,16.62
2018-09-03T09:46:47.907Z,16.63
2018-09-03T09:47:47.938Z,16.65
2018-09-03T09:48:47.902Z,16.75
2018-09-03T09:49:48.016Z,16.90
2018-09-03T09:50:47.909Z,16.96
2018-09-03T09:51:47.911Z,16.88
2018-09-03T09:52:47.949Z,16.92
2018-09-03T09:53:47.912Z,16.88
2018-09-03T09:54:47.929Z,16.90
2018-09-03T09:55:47.907Z,16.93
2018-09-03T09:56:47.957Z,16.85
2018-09-03T09:57:47.916Z,16.67
2018-09-03T09:58:47.975Z,16.71
2018-09-03T09:59:47.956Z,16.77
2018-09-03T10:00:47.925Z,16.83
2018-09-03T10:01:47.959Z,16.92
2018-09-03T10:02:47.929Z,16.85
2018-09-03T10:03:47.925Z,16.88
2018-09-03T10:04:47.924Z,16.93
2018-09-03T10:05:47.935Z,16.93
2018-09-03T10:06:47.961Z,16.86
2018-09-03T10:07:47.970Z,17.03
2018-09-03T10:08:48.034Z,17.03
2018-09-03T10:09:47.965Z,17.14
2018-09-03T10:10:47.932Z,17.33
2018-09-03T10:11:47.925Z,17.38
2018-09-03T10:12:47.965Z,17.59
2018-09-03T10:13:47.934Z,17.55
2018-09-03T10:14:47.935Z,17.67
2018-09-03T10:15:47.942Z,17.57
2018-09-03T10:16:47.965Z,17.46
2018-09-03T10:17:47.944Z,17.66
2018-09-03T10:18:47.939Z,17.76
2018-09-03T10:19:47.970Z,17.73
2018-09-03T10:20:48.009Z,17.40
2018-09-03T10:21:47.937Z,17.36
2018-09-03T10:22:47.963Z,17.41
2018-09-03T10:23:47.943Z,17.54
2018-09-03T10:24:47.946Z,17.35
2018-09-03T10:25:47.946Z,17.46
2018-09-03T10:26:47.947Z,17.50
2018-09-03T10:27:47.976Z,17.62
2018-09-03T10:28:47.949Z,17.44
2018-09-03T10:29:47.988Z,17.41
2018-09-03T10:30:47.959Z,17.40
2018-09-03T10:31:48.011Z,17.32
2018-09-03T10:32:47.992Z,17.44
2018-09-03T10:33:47.957Z,17.25
2018-09-03T10:34:47.965Z,17.13
2018-09-03T10:35:47.965Z,16.99
2018-09-03T10:36:47.971Z,17.17
2018-09-03T10:37:48.001Z,17.26
2018-09-03T10:38:47.973Z,17.33
2018-09-03T10:39:47.973Z,17.30
2018-09-03T10:40:47.975Z,17.30
2018-09-03T10:41:47.999Z,17.29
2018-09-03T10:42:48.007Z,17.14
2018-09-03T10:43:47.978Z,17.15
2018-09-03T10:44:47.994Z,16.90
2018-09-03T10:45:47.986Z,17.11
2018-09-03T10:46:47.988Z,17.14
2018-09-03T10:47:48.016Z,17.17
2018-09-03T10:48:47.987Z,17.22
2018-09-03T10:49:48.027Z,17.15
2018-09-03T10:50:47.991Z,17.14
2018-09-03T10:51:48.023Z,17.17
2018-09-03T10:52:47.996Z,17.14
2018-09-03T10:53:47.996Z,17.10
2018-09-03T10:54:48.024Z,17.08
2018-09-03T10:55:48.000Z,17.25
2018-09-03T10:56:48.001Z,17.44
2018-09-03T10:57:48.031Z,17.44
2018-09-03T10:58:48.008Z,17.50
2018-09-03T10:59:48.933Z,17.55
2018-09-03T11:00:48.005Z,17.55
2018-09-03T11:01:48.036Z,17.59
2018-09-03T11:02:48.937Z,17.43
2018-09-03T11:03:48.014Z,17.51
2018-09-03T11:04:48.013Z,17.51
2018-09-03T11:05:48.017Z,17.64
2018-09-03T11:06:48.046Z,17.62
2018-09-03T11:07:48.017Z,17.43
2018-09-03T11:08:48.022Z,17.69
2018-09-03T11:09:48.022Z,17.70
2018-09-03T11:10:48.042Z,17.76
2018-09-03T11:11:48.051Z,17.78
2018-09-03T11:12:48.032Z,17.81
2018-09-03T11:13:48.030Z,17.71
2018-09-03T11:14:48.031Z,17.74
2018-09-03T11:15:48.037Z,17.99
2018-09-03T11:16:48.060Z,18.00
2018-09-03T11:17:48.040Z,18.18
2018-09-03T11:18:48.043Z,18.31
2018-09-03T11:19:48.959Z,18.54
2018-09-03T11:20:48.045Z,18.54
2018-09-03T11:21:48.075Z,18.43
2018-09-03T11:22:48.048Z,18.50
2018-09-03T11:23:48.052Z,18.54
2018-09-03T11:24:48.082Z,18.40
2018-09-03T11:25:50.114Z,18.27
2018-09-03T11:26:48.092Z,18.33
2018-09-03T11:27:48.061Z,18.22
2018-09-03T11:28:48.082Z,18.02
2018-09-03T11:29:48.069Z,18.09
2018-09-03T11:30:48.097Z,18.40
2018-09-03T11:31:48.080Z,18.36
2018-09-03T11:32:48.073Z,18.39
2018-09-03T11:33:48.077Z,18.46
2018-09-03T11:34:48.081Z,18.46
2018-09-03T11:35:48.106Z,18.31
2018-09-03T11:36:48.086Z,18.34
2018-09-03T11:37:48.095Z,17.92
2018-09-03T11:38:48.090Z,17.92
2018-09-03T11:39:48.095Z,17.97
2018-09-03T11:40:48.152Z,18.10
2018-09-03T11:41:48.106Z,18.19
2018-09-03T11:42:48.099Z,18.28
2018-09-03T11:43:48.104Z,18.36
2018-09-03T11:44:48.116Z,18.40
2018-09-03T11:45:48.125Z,18.42
2018-09-03T11:46:48.116Z,18.50
2018-09-03T11:47:48.114Z,18.44
2018-09-03T11:48:48.116Z,18.52
2018-09-03T11:49:48.120Z,18.61
2018-09-03T11:50:48.150Z,18.86
2018-09-03T11:51:48.125Z,19.08
2018-09-03T11:52:48.130Z,19.11
2018-09-03T11:53:48.133Z,18.67
2018-09-03T11:54:48.165Z,18.70
2018-09-03T11:55:48.141Z,18.72
2018-09-03T11:56:48.219Z,18.83
2018-09-03T11:57:48.156Z,18.97
2018-09-03T11:58:48.146Z,18.97
2018-09-03T11:59:48.174Z,18.77
2018-09-03T12:00:48.154Z,18.64
2018-09-03T12:01:48.151Z,18.68
2018-09-03T12:02:48.160Z,18.64
2018-09-03T12:03:48.163Z,18.76
2018-09-03T12:04:53.615Z,18.64
2018-09-03T12:05:48.167Z,18.70
2018-09-03T12:06:48.182Z,18.70
2018-09-03T12:07:48.175Z,18.83
2018-09-03T12:08:48.179Z,18.62
2018-09-03T12:09:48.213Z,18.44
2018-09-03T12:10:48.184Z,18.28
2018-09-03T12:11:48.191Z,18.31
2018-09-03T12:12:48.184Z,18.17
2018-09-03T12:13:48.220Z,18.19
2018-09-03T12:14:48.195Z,18.15
2018-09-03T12:15:48.200Z,18.12
2018-09-03T12:16:48.201Z,18.07
2018-09-03T12:17:48.205Z,18.00
2018-09-03T12:18:48.232Z,18.13
2018-09-03T12:19:48.214Z,18.18
2018-09-03T12:20:48.217Z,18.07
2018-09-03T12:21:48.214Z,18.09
2018-09-03T12:22:48.215Z,17.92
2018-09-03T12:23:48.245Z,18.00
2018-09-03T12:24:48.222Z,18.03
2018-09-03T12:25:48.228Z,18.06
2018-09-03T12:26:48.226Z,17.97
2018-09-03T12:27:48.234Z,17.99
2018-09-03T12:28:48.258Z,18.02
2018-09-03T12:29:48.231Z,18.00
2018-09-03T12:30:48.235Z,17.97
2018-09-03T12:31:48.243Z,17.89
2018-09-03T12:32:48.240Z,17.78
2018-09-03T12:33:48.267Z,17.85
2018-09-03T12:34:48.243Z,17.82
2018-09-03T12:35:48.243Z,17.81
2018-09-03T12:36:48.250Z,17.85
2018-09-03T12:37:48.260Z,17.74
2018-09-03T12:38:48.280Z,17.74
2018-09-03T12:39:48.249Z,17.84
2018-09-03T12:40:48.254Z,17.85
2018-09-03T12:41:48.296Z,17.78
2018-09-03T12:42:48.311Z,17.76
2018-09-03T12:43:48.260Z,17.82
2018-09-03T12:44:48.306Z,17.94
2018-09-03T12:45:48.260Z,17.91
2018-09-03T12:46:48.265Z,17.70
2018-09-03T12:47:48.272Z,17.62
2018-09-03T12:48:48.269Z,17.87
2018-09-03T12:49:48.332Z,17.82
2018-09-03T12:50:48.273Z,17.84
2018-09-03T12:51:48.309Z,17.79
2018-09-03T12:52:48.281Z,17.84